sensor_id;sensor_type;location;lat;lon;timestamp;P1;durP1;ratioP1;P2;durP2;ratioP2
74042;SDS011;62384;53.600;10.040;2022-10-23T00:01:31;20.55;;;7.97;;
74042;SDS011;62384;53.600;10.040;2022-10-23T00:04:06;19.98;;;7.93;;
74042;SDS011;62384;53.600;10.040;2022-10-23T00:06:35;23.15;;;7.95;;
74042;SDS011;62384;53.600;10.040;2022-10-23T00:09:01;15.10;;;7.50;;
74042;SDS011;62384;53.600;10.040;2022-10-23T00:11:30;16.85;;;7.00;;
74042;SDS011;62384;53.600;10.040;2022-10-23T00:13:57;12.82;;;6.82;;
74042;SDS011;62384;53.600;10.040;2022-10-23T00:16:24;17.67;;;6.97;;
74042;SDS011;62384;53.600;10.040;2022-10-23T00:18:53;24.55;;;10.10;;
74042;SDS011;62384;53.600;10.040;2022-10-23T00:21:18;17.10;;;8.38;;
74042;SDS011;62384;53.600;10.040;2022-10-23T00:23:49;16.83;;;7.60;;
74042;SDS011;62384;53.600;10.040;2022-10-23T00:26:14;18.17;;;7.63;;
74042;SDS011;62384;53.600;10.040;2022-10-23T00:28:44;18.60;;;6.90;;
74042;SDS011;62384;53.600;10.040;2022-10-23T00:31:12;25.77;;;8.00;;
74042;SDS011;62384;53.600;10.040;2022-10-23T00:33:38;14.50;;;6.75;;
74042;SDS011;62384;53.600;10.040;2022-10-23T00:36:04;18.25;;;7.18;;
74042;SDS011;62384;53.600;10.040;2022-10-23T00:38:30;16.63;;;7.60;;
74042;SDS011;62384;53.600;10.040;2022-10-23T00:40:56;16.70;;;7.15;;
74042;SDS011;62384;53.600;10.040;2022-10-23T00:43:22;14.98;;;6.80;;
74042;SDS011;62384;53.600;10.040;2022-10-23T00:45:50;14.50;;;6.95;;
74042;SDS011;62384;53.600;10.040;2022-10-23T00:48:21;18.55;;;6.88;;
74042;SDS011;62384;53.600;10.040;2022-10-23T00:50:47;13.07;;;6.70;;
74042;SDS011;62384;53.600;10.040;2022-10-23T00:53:13;15.07;;;7.65;;
74042;SDS011;62384;53.600;10.040;2022-10-23T00:55:39;18.27;;;6.65;;
74042;SDS011;62384;53.600;10.040;2022-10-23T00:58:26;19.52;;;7.18;;
74042;SDS011;62384;53.600;10.040;2022-10-23T01:00:53;19.95;;;7.05;;
74042;SDS011;62384;53.600;10.040;2022-10-23T01:03:20;19.65;;;6.95;;
74042;SDS011;62384;53.600;10.040;2022-10-23T01:06:10;24.17;;;7.20;;
74042;SDS011;62384;53.600;10.040;2022-10-23T01:11:52;15.82;;;7.32;;
74042;SDS011;62384;53.600;10.040;2022-10-23T01:14:34;18.35;;;6.85;;
74042;SDS011;62384;53.600;10.040;2022-10-23T01:17:12;16.60;;;6.72;;
74042;SDS011;62384;53.600;10.040;2022-10-23T01:24:58;16.02;;;6.47;;
74042;SDS011;62384;53.600;10.040;2022-10-23T01:27:30;13.32;;;6.72;;
74042;SDS011;62384;53.600;10.040;2022-10-23T01:30:12;17.13;;;6.85;;
74042;SDS011;62384;53.600;10.040;2022-10-23T01:35:24;18.80;;;7.45;;
74042;SDS011;62384;53.600;10.040;2022-10-23T01:37:54;19.10;;;6.82;;
74042;SDS011;62384;53.600;10.040;2022-10-23T01:40:54;15.43;;;7.50;;
74042;SDS011;62384;53.600;10.040;2022-10-23T01:43:30;15.55;;;5.85;;
74042;SDS011;62384;53.600;10.040;2022-10-23T01:46:00;18.65;;;7.15;;
74042;SDS011;62384;53.600;10.040;2022-10-23T01:48:29;16.90;;;6.68;;
74042;SDS011;62384;53.600;10.040;2022-10-23T01:50:59;18.60;;;6.97;;
74042;SDS011;62384;53.600;10.040;2022-10-23T01:53:30;17.73;;;6.30;;
74042;SDS011;62384;53.600;10.040;2022-10-23T01:56:01;17.83;;;7.93;;
74042;SDS011;62384;53.600;10.040;2022-10-23T01:58:29;13.20;;;6.78;;
74042;SDS011;62384;53.600;10.040;2022-10-23T02:00:58;17.70;;;6.97;;
74042;SDS011;62384;53.600;10.040;2022-10-23T02:03:28;14.40;;;7.20;;
74042;SDS011;62384;53.600;10.040;2022-10-23T02:05:55;19.50;;;7.57;;
74042;SDS011;62384;53.600;10.040;2022-10-23T02:08:21;16.60;;;7.70;;
74042;SDS011;62384;53.600;10.040;2022-10-23T02:13:41;14.93;;;7.28;;
74042;SDS011;62384;53.600;10.040;2022-10-23T02:24:48;15.98;;;7.80;;
74042;SDS011;62384;53.600;10.040;2022-10-23T02:27:18;20.08;;;7.68;;
74042;SDS011;62384;53.600;10.040;2022-10-23T02:29:49;20.52;;;8.02;;
74042;SDS011;62384;53.600;10.040;2022-10-23T02:32:18;15.50;;;7.18;;
74042;SDS011;62384;53.600;10.040;2022-10-23T02:34:46;20.45;;;7.95;;
74042;SDS011;62384;53.600;10.040;2022-10-23T02:37:12;16.88;;;7.78;;
74042;SDS011;62384;53.600;10.040;2022-10-23T02:39:38;16.27;;;8.13;;
74042;SDS011;62384;53.600;10.040;2022-10-23T02:50:12;17.25;;;7.40;;
74042;SDS011;62384;53.600;10.040;2022-10-23T02:52:51;17.88;;;8.38;;
74042;SDS011;62384;53.600;10.040;2022-10-23T02:58:18;18.77;;;8.10;;
74042;SDS011;62384;53.600;10.040;2022-10-23T03:00:58;16.83;;;7.70;;
74042;SDS011;62384;53.600;10.040;2022-10-23T03:03:32;17.13;;;7.95;;
74042;SDS011;62384;53.600;10.040;2022-10-23T03:06:01;19.67;;;8.38;;
74042;SDS011;62384;53.600;10.040;2022-10-23T03:08:27;14.38;;;7.68;;
74042;SDS011;62384;53.600;10.040;2022-10-23T03:10:52;13.52;;;7.38;;
74042;SDS011;62384;53.600;10.040;2022-10-23T03:13:17;16.42;;;8.07;;
74042;SDS011;62384;53.600;10.040;2022-10-23T03:15:43;16.15;;;7.82;;
74042;SDS011;62384;53.600;10.040;2022-10-23T03:18:09;15.18;;;7.22;;
74042;SDS011;62384;53.600;10.040;2022-10-23T03:20:35;16.85;;;7.90;;
74042;SDS011;62384;53.600;10.040;2022-10-23T03:23:00;14.45;;;7.47;;
74042;SDS011;62384;53.600;10.040;2022-10-23T03:25:25;17.13;;;7.85;;
74042;SDS011;62384;53.600;10.040;2022-10-23T03:27:51;14.25;;;6.93;;
74042;SDS011;62384;53.600;10.040;2022-10-23T03:30:16;13.55;;;7.65;;
74042;SDS011;62384;53.600;10.040;2022-10-23T03:32:42;24.00;;;9.43;;
74042;SDS011;62384;53.600;10.040;2022-10-23T03:35:07;15.98;;;7.35;;
74042;SDS011;62384;53.600;10.040;2022-10-23T03:37:33;14.73;;;7.40;;
74042;SDS011;62384;53.600;10.040;2022-10-23T03:39:58;18.25;;;7.70;;
74042;SDS011;62384;53.600;10.040;2022-10-23T03:42:23;19.67;;;7.10;;
74042;SDS011;62384;53.600;10.040;2022-10-23T03:44:49;20.30;;;8.65;;
74042;SDS011;62384;53.600;10.040;2022-10-23T03:47:14;17.00;;;7.97;;
74042;SDS011;62384;53.600;10.040;2022-10-23T03:49:39;13.27;;;7.28;;
74042;SDS011;62384;53.600;10.040;2022-10-23T03:52:05;20.77;;;7.35;;
74042;SDS011;62384;53.600;10.040;2022-10-23T03:54:30;18.35;;;7.57;;
74042;SDS011;62384;53.600;10.040;2022-10-23T03:56:56;15.55;;;7.82;;
74042;SDS011;62384;53.600;10.040;2022-10-23T03:59:21;15.20;;;7.80;;
74042;SDS011;62384;53.600;10.040;2022-10-23T04:01:47;17.70;;;6.75;;
74042;SDS011;62384;53.600;10.040;2022-10-23T04:04:13;19.55;;;7.28;;
74042;SDS011;62384;53.600;10.040;2022-10-23T04:06:39;14.07;;;7.45;;
74042;SDS011;62384;53.600;10.040;2022-10-23T04:09:04;15.73;;;6.43;;
74042;SDS011;62384;53.600;10.040;2022-10-23T04:11:30;15.55;;;7.07;;
74042;SDS011;62384;53.600;10.040;2022-10-23T04:13:56;16.70;;;6.38;;
74042;SDS011;62384;53.600;10.040;2022-10-23T04:16:21;20.33;;;7.40;;
74042;SDS011;62384;53.600;10.040;2022-10-23T04:18:48;11.63;;;5.97;;
74042;SDS011;62384;53.600;10.040;2022-10-23T04:21:13;14.77;;;6.03;;
74042;SDS011;62384;53.600;10.040;2022-10-23T04:23:41;15.45;;;6.53;;
74042;SDS011;62384;53.600;10.040;2022-10-23T04:26:06;13.68;;;6.50;;
74042;SDS011;62384;53.600;10.040;2022-10-23T04:28:31;15.77;;;6.15;;
74042;SDS011;62384;53.600;10.040;2022-10-23T04:30:56;12.02;;;5.85;;
74042;SDS011;62384;53.600;10.040;2022-10-23T04:33:22;16.00;;;5.95;;
74042;SDS011;62384;53.600;10.040;2022-10-23T04:35:48;13.00;;;6.18;;
74042;SDS011;62384;53.600;10.040;2022-10-23T04:38:14;17.58;;;6.30;;
74042;SDS011;62384;53.600;10.040;2022-10-23T04:40:40;14.18;;;5.97;;
74042;SDS011;62384;53.600;10.040;2022-10-23T04:43:05;16.85;;;6.28;;
74042;SDS011;62384;53.600;10.040;2022-10-23T04:45:31;19.10;;;5.97;;
74042;SDS011;62384;53.600;10.040;2022-10-23T04:47:56;11.13;;;6.07;;
74042;SDS011;62384;53.600;10.040;2022-10-23T04:50:22;11.13;;;5.55;;
74042;SDS011;62384;53.600;10.040;2022-10-23T04:52:52;10.45;;;6.25;;
74042;SDS011;62384;53.600;10.040;2022-10-23T04:55:18;16.02;;;6.40;;
74042;SDS011;62384;53.600;10.040;2022-10-23T04:57:43;10.18;;;5.20;;
74042;SDS011;62384;53.600;10.040;2022-10-23T05:00:11;14.25;;;5.53;;
74042;SDS011;62384;53.600;10.040;2022-10-23T05:02:38;11.35;;;5.40;;
74042;SDS011;62384;53.600;10.040;2022-10-23T05:05:03;14.45;;;6.20;;
74042;SDS011;62384;53.600;10.040;2022-10-23T05:07:29;10.82;;;5.38;;
74042;SDS011;62384;53.600;10.040;2022-10-23T05:12:48;10.80;;;5.22;;
74042;SDS011;62384;53.600;10.040;2022-10-23T05:15:14;13.35;;;5.32;;
74042;SDS011;62384;53.600;10.040;2022-10-23T05:17:40;10.20;;;5.47;;
74042;SDS011;62384;53.600;10.040;2022-10-23T05:20:08;11.90;;;5.40;;
74042;SDS011;62384;53.600;10.040;2022-10-23T05:22:41;15.85;;;5.40;;
74042;SDS011;62384;53.600;10.040;2022-10-23T05:25:08;16.77;;;5.97;;
74042;SDS011;62384;53.600;10.040;2022-10-23T05:27:34;11.10;;;5.45;;
74042;SDS011;62384;53.600;10.040;2022-10-23T05:29:59;10.63;;;5.15;;
74042;SDS011;62384;53.600;10.040;2022-10-23T05:32:26;13.57;;;5.63;;
74042;SDS011;62384;53.600;10.040;2022-10-23T05:34:54;12.40;;;4.93;;
74042;SDS011;62384;53.600;10.040;2022-10-23T05:37:20;12.68;;;5.80;;
74042;SDS011;62384;53.600;10.040;2022-10-23T05:39:45;11.48;;;6.55;;
74042;SDS011;62384;53.600;10.040;2022-10-23T05:42:11;13.05;;;5.88;;
74042;SDS011;62384;53.600;10.040;2022-10-23T05:44:36;11.48;;;5.85;;
74042;SDS011;62384;53.600;10.040;2022-10-23T05:47:01;14.02;;;5.88;;
74042;SDS011;62384;53.600;10.040;2022-10-23T05:49:27;12.40;;;5.35;;
74042;SDS011;62384;53.600;10.040;2022-10-23T05:51:52;9.68;;;5.55;;
74042;SDS011;62384;53.600;10.040;2022-10-23T05:54:18;13.25;;;5.65;;
74042;SDS011;62384;53.600;10.040;2022-10-23T05:56:43;14.02;;;6.10;;
74042;SDS011;62384;53.600;10.040;2022-10-23T05:59:10;13.85;;;6.30;;
74042;SDS011;62384;53.600;10.040;2022-10-23T06:01:35;16.40;;;6.78;;
74042;SDS011;62384;53.600;10.040;2022-10-23T06:04:01;17.17;;;6.82;;
74042;SDS011;62384;53.600;10.040;2022-10-23T06:06:28;12.90;;;6.40;;
74042;SDS011;62384;53.600;10.040;2022-10-23T06:08:53;15.10;;;6.53;;
74042;SDS011;62384;53.600;10.040;2022-10-23T06:11:19;14.02;;;6.38;;
74042;SDS011;62384;53.600;10.040;2022-10-23T06:13:45;15.70;;;6.82;;
74042;SDS011;62384;53.600;10.040;2022-10-23T06:16:13;13.93;;;6.57;;
74042;SDS011;62384;53.600;10.040;2022-10-23T06:18:42;14.95;;;6.72;;
74042;SDS011;62384;53.600;10.040;2022-10-23T06:21:09;12.90;;;5.53;;
74042;SDS011;62384;53.600;10.040;2022-10-23T06:23:36;11.00;;;5.75;;
74042;SDS011;62384;53.600;10.040;2022-10-23T06:26:02;11.60;;;5.68;;
74042;SDS011;62384;53.600;10.040;2022-10-23T06:28:29;14.93;;;6.60;;
74042;SDS011;62384;53.600;10.040;2022-10-23T06:30:55;17.70;;;6.70;;
74042;SDS011;62384;53.600;10.040;2022-10-23T06:33:20;11.23;;;5.60;;
74042;SDS011;62384;53.600;10.040;2022-10-23T06:35:45;15.13;;;6.68;;
74042;SDS011;62384;53.600;10.040;2022-10-23T06:38:10;14.60;;;6.03;;
74042;SDS011;62384;53.600;10.040;2022-10-23T06:40:36;12.70;;;5.70;;
74042;SDS011;62384;53.600;10.040;2022-10-23T06:43:03;12.48;;;5.85;;
74042;SDS011;62384;53.600;10.040;2022-10-23T06:45:29;13.70;;;6.80;;
74042;SDS011;62384;53.600;10.040;2022-10-23T06:47:56;12.93;;;5.95;;
74042;SDS011;62384;53.600;10.040;2022-10-23T06:50:22;16.95;;;6.88;;
74042;SDS011;62384;53.600;10.040;2022-10-23T06:52:50;12.73;;;5.63;;
74042;SDS011;62384;53.600;10.040;2022-10-23T06:55:21;8.57;;;5.15;;
74042;SDS011;62384;53.600;10.040;2022-10-23T06:57:46;13.07;;;5.15;;
74042;SDS011;62384;53.600;10.040;2022-10-23T07:00:12;11.73;;;5.57;;
74042;SDS011;62384;53.600;10.040;2022-10-23T07:02:37;12.45;;;6.00;;
74042;SDS011;62384;53.600;10.040;2022-10-23T07:05:03;12.32;;;5.75;;
74042;SDS011;62384;53.600;10.040;2022-10-23T07:07:28;10.85;;;4.75;;
74042;SDS011;62384;53.600;10.040;2022-10-23T07:09:54;11.27;;;5.53;;
74042;SDS011;62384;53.600;10.040;2022-10-23T07:12:20;19.08;;;5.47;;
74042;SDS011;62384;53.600;10.040;2022-10-23T07:14:45;9.20;;;5.13;;
74042;SDS011;62384;53.600;10.040;2022-10-23T07:17:10;10.35;;;4.70;;
74042;SDS011;62384;53.600;10.040;2022-10-23T07:19:41;12.65;;;5.10;;
74042;SDS011;62384;53.600;10.040;2022-10-23T07:22:06;9.70;;;4.82;;
74042;SDS011;62384;53.600;10.040;2022-10-23T07:24:31;9.57;;;4.97;;
74042;SDS011;62384;53.600;10.040;2022-10-23T07:27:01;10.43;;;4.35;;
74042;SDS011;62384;53.600;10.040;2022-10-23T07:29:27;13.50;;;5.75;;
74042;SDS011;62384;53.600;10.040;2022-10-23T07:31:52;9.55;;;5.00;;
74042;SDS011;62384;53.600;10.040;2022-10-23T07:34:18;12.77;;;5.38;;
74042;SDS011;62384;53.600;10.040;2022-10-23T07:36:45;8.88;;;4.72;;
74042;SDS011;62384;53.600;10.040;2022-10-23T07:39:11;10.75;;;4.78;;
74042;SDS011;62384;53.600;10.040;2022-10-23T07:41:36;10.05;;;4.75;;
74042;SDS011;62384;53.600;10.040;2022-10-23T07:44:02;9.43;;;4.05;;
74042;SDS011;62384;53.600;10.040;2022-10-23T07:46:28;12.32;;;4.90;;
74042;SDS011;62384;53.600;10.040;2022-10-23T07:48:53;13.68;;;4.65;;
74042;SDS011;62384;53.600;10.040;2022-10-23T07:51:18;7.25;;;4.63;;
74042;SDS011;62384;53.600;10.040;2022-10-23T07:53:43;8.75;;;4.68;;
74042;SDS011;62384;53.600;10.040;2022-10-23T07:56:20;9.32;;;4.30;;
74042;SDS011;62384;53.600;10.040;2022-10-23T07:58:49;8.45;;;4.88;;
74042;SDS011;62384;53.600;10.040;2022-10-23T08:01:16;9.60;;;5.05;;
74042;SDS011;62384;53.600;10.040;2022-10-23T08:03:43;11.57;;;5.07;;
74042;SDS011;62384;53.600;10.040;2022-10-23T08:06:09;10.27;;;4.18;;
74042;SDS011;62384;53.600;10.040;2022-10-23T08:08:34;10.82;;;4.10;;
74042;SDS011;62384;53.600;10.040;2022-10-23T08:11:00;8.32;;;4.18;;
74042;SDS011;62384;53.600;10.040;2022-10-23T08:13:25;9.75;;;4.55;;
74042;SDS011;62384;53.600;10.040;2022-10-23T08:15:54;8.23;;;3.95;;
74042;SDS011;62384;53.600;10.040;2022-10-23T08:18:20;9.63;;;4.60;;
74042;SDS011;62384;53.600;10.040;2022-10-23T08:20:51;13.93;;;4.00;;
74042;SDS011;62384;53.600;10.040;2022-10-23T08:23:17;8.30;;;4.25;;
74042;SDS011;62384;53.600;10.040;2022-10-23T08:25:45;9.45;;;4.53;;
74042;SDS011;62384;53.600;10.040;2022-10-23T08:28:11;6.30;;;3.97;;
74042;SDS011;62384;53.600;10.040;2022-10-23T08:30:36;14.77;;;4.75;;
74042;SDS011;62384;53.600;10.040;2022-10-23T08:33:05;8.90;;;3.85;;
74042;SDS011;62384;53.600;10.040;2022-10-23T08:35:34;14.05;;;3.97;;
74042;SDS011;62384;53.600;10.040;2022-10-23T08:38:02;12.40;;;3.45;;
74042;SDS011;62384;53.600;10.040;2022-10-23T08:40:28;8.35;;;3.63;;
74042;SDS011;62384;53.600;10.040;2022-10-23T08:43:02;6.15;;;3.35;;
74042;SDS011;62384;53.600;10.040;2022-10-23T08:45:43;7.20;;;3.30;;
74042;SDS011;62384;53.600;10.040;2022-10-23T08:51:28;4.60;;;3.05;;
74042;SDS011;62384;53.600;10.040;2022-10-23T08:53:59;7.15;;;3.22;;
74042;SDS011;62384;53.600;10.040;2022-10-23T08:59:10;6.85;;;2.95;;
74042;SDS011;62384;53.600;10.040;2022-10-23T09:01:55;6.38;;;3.17;;
74042;SDS011;62384;53.600;10.040;2022-10-23T09:04:24;7.70;;;3.28;;
74042;SDS011;62384;53.600;10.040;2022-10-23T09:12:58;7.43;;;3.08;;
74042;SDS011;62384;53.600;10.040;2022-10-23T09:15:53;7.32;;;2.97;;
74042;SDS011;62384;53.600;10.040;2022-10-23T09:18:44;7.05;;;3.03;;
74042;SDS011;62384;53.600;10.040;2022-10-23T09:21:11;7.63;;;2.97;;
74042;SDS011;62384;53.600;10.040;2022-10-23T09:23:36;11.40;;;3.58;;
74042;SDS011;62384;53.600;10.040;2022-10-23T09:26:04;6.43;;;3.72;;
74042;SDS011;62384;53.600;10.040;2022-10-23T09:28:41;8.38;;;3.22;;
74042;SDS011;62384;53.600;10.040;2022-10-23T09:31:11;5.82;;;2.30;;
74042;SDS011;62384;53.600;10.040;2022-10-23T09:33:36;4.32;;;2.17;;
74042;SDS011;62384;53.600;10.040;2022-10-23T09:36:04;3.60;;;2.13;;
74042;SDS011;62384;53.600;10.040;2022-10-23T09:41:03;6.65;;;2.10;;
74042;SDS011;62384;53.600;10.040;2022-10-23T09:43:31;7.10;;;2.10;;
74042;SDS011;62384;53.600;10.040;2022-10-23T09:46:02;8.85;;;2.40;;
74042;SDS011;62384;53.600;10.040;2022-10-23T09:48:30;9.85;;;2.10;;
74042;SDS011;62384;53.600;10.040;2022-10-23T09:51:00;4.55;;;2.60;;
74042;SDS011;62384;53.600;10.040;2022-10-23T09:53:46;9.80;;;2.15;;
74042;SDS011;62384;53.600;10.040;2022-10-23T09:58:55;5.22;;;2.20;;
74042;SDS011;62384;53.600;10.040;2022-10-23T10:01:56;6.07;;;2.28;;
74042;SDS011;62384;53.600;10.040;2022-10-23T10:04:40;7.13;;;3.03;;
74042;SDS011;62384;53.600;10.040;2022-10-23T10:07:23;4.47;;;2.33;;
74042;SDS011;62384;53.600;10.040;2022-10-23T10:09:54;6.75;;;2.45;;
74042;SDS011;62384;53.600;10.040;2022-10-23T10:20:22;7.00;;;2.58;;
74042;SDS011;62384;53.600;10.040;2022-10-23T10:23:12;8.05;;;2.53;;
74042;SDS011;62384;53.600;10.040;2022-10-23T10:25:40;7.67;;;2.73;;
74042;SDS011;62384;53.600;10.040;2022-10-23T10:28:27;10.30;;;2.92;;
74042;SDS011;62384;53.600;10.040;2022-10-23T10:39:09;6.70;;;2.65;;
74042;SDS011;62384;53.600;10.040;2022-10-23T10:45:02;5.32;;;2.33;;
74042;SDS011;62384;53.600;10.040;2022-10-23T10:50:25;9.68;;;2.92;;
74042;SDS011;62384;53.600;10.040;2022-10-23T10:55:49;9.18;;;3.30;;
74042;SDS011;62384;53.600;10.040;2022-10-23T10:58:19;10.25;;;2.53;;
74042;SDS011;62384;53.600;10.040;2022-10-23T11:00:53;6.82;;;2.47;;
74042;SDS011;62384;53.600;10.040;2022-10-23T11:03:33;7.28;;;2.72;;
74042;SDS011;62384;53.600;10.040;2022-10-23T11:06:03;5.32;;;3.03;;
74042;SDS011;62384;53.600;10.040;2022-10-23T11:08:37;5.13;;;2.65;;
74042;SDS011;62384;53.600;10.040;2022-10-23T11:11:18;9.18;;;2.50;;
74042;SDS011;62384;53.600;10.040;2022-10-23T11:13:48;5.05;;;2.45;;
74042;SDS011;62384;53.600;10.040;2022-10-23T11:16:22;10.02;;;2.65;;
74042;SDS011;62384;53.600;10.040;2022-10-23T11:19:15;5.78;;;2.60;;
74042;SDS011;62384;53.600;10.040;2022-10-23T11:24:48;9.38;;;2.88;;
74042;SDS011;62384;53.600;10.040;2022-10-23T11:38:34;4.70;;;2.67;;
74042;SDS011;62384;53.600;10.040;2022-10-23T11:41:04;5.22;;;2.25;;
74042;SDS011;62384;53.600;10.040;2022-10-23T11:43:50;6.22;;;2.45;;
74042;SDS011;62384;53.600;10.040;2022-10-23T11:48:49;6.68;;;2.90;;
74042;SDS011;62384;53.600;10.040;2022-10-23T11:51:26;7.65;;;2.33;;
74042;SDS011;62384;53.600;10.040;2022-10-23T11:56:30;6.32;;;2.78;;
74042;SDS011;62384;53.600;10.040;2022-10-23T11:58:56;4.45;;;2.15;;
74042;SDS011;62384;53.600;10.040;2022-10-23T12:01:31;5.93;;;2.60;;
74042;SDS011;62384;53.600;10.040;2022-10-23T12:06:37;9.70;;;2.47;;
74042;SDS011;62384;53.600;10.040;2022-10-23T12:14:48;7.45;;;2.30;;
74042;SDS011;62384;53.600;10.040;2022-10-23T12:19:46;4.30;;;1.98;;
74042;SDS011;62384;53.600;10.040;2022-10-23T12:22:23;5.45;;;2.03;;
74042;SDS011;62384;53.600;10.040;2022-10-23T12:25:50;10.82;;;2.08;;
74042;SDS011;62384;53.600;10.040;2022-10-23T12:37:07;6.18;;;3.00;;
74042;SDS011;62384;53.600;10.040;2022-10-23T12:39:50;4.68;;;2.30;;
74042;SDS011;62384;53.600;10.040;2022-10-23T12:42:20;7.45;;;2.30;;
74042;SDS011;62384;53.600;10.040;2022-10-23T12:47:34;6.78;;;2.33;;
74042;SDS011;62384;53.600;10.040;2022-10-23T12:50:20;3.55;;;1.90;;
74042;SDS011;62384;53.600;10.040;2022-10-23T12:53:03;6.22;;;2.22;;
74042;SDS011;62384;53.600;10.040;2022-10-23T12:58:22;7.18;;;2.15;;
74042;SDS011;62384;53.600;10.040;2022-10-23T13:00:50;5.93;;;2.08;;
74042;SDS011;62384;53.600;10.040;2022-10-23T13:03:20;11.90;;;2.83;;
74042;SDS011;62384;53.600;10.040;2022-10-23T13:05:48;3.40;;;2.15;;
74042;SDS011;62384;53.600;10.040;2022-10-23T13:08:15;4.78;;;2.40;;
74042;SDS011;62384;53.600;10.040;2022-10-23T13:10:42;6.75;;;2.30;;
74042;SDS011;62384;53.600;10.040;2022-10-23T13:13:09;6.80;;;2.08;;
74042;SDS011;62384;53.600;10.040;2022-10-23T13:15:37;7.47;;;2.25;;
74042;SDS011;62384;53.600;10.040;2022-10-23T13:18:04;8.18;;;1.98;;
74042;SDS011;62384;53.600;10.040;2022-10-23T13:20:35;5.93;;;2.17;;
74042;SDS011;62384;53.600;10.040;2022-10-23T13:23:30;5.13;;;1.88;;
74042;SDS011;62384;53.600;10.040;2022-10-23T13:28:31;9.77;;;2.28;;
74042;SDS011;62384;53.600;10.040;2022-10-23T13:33:46;6.38;;;2.40;;
74042;SDS011;62384;53.600;10.040;2022-10-23T13:36:34;6.05;;;2.08;;
74042;SDS011;62384;53.600;10.040;2022-10-23T13:41:35;5.50;;;1.83;;
74042;SDS011;62384;53.600;10.040;2022-10-23T13:44:06;3.15;;;1.50;;
74042;SDS011;62384;53.600;10.040;2022-10-23T13:46:33;3.75;;;1.90;;
74042;SDS011;62384;53.600;10.040;2022-10-23T13:48:58;5.53;;;2.78;;
74042;SDS011;62384;53.600;10.040;2022-10-23T13:51:24;4.72;;;2.20;;
74042;SDS011;62384;53.600;10.040;2022-10-23T13:53:52;4.18;;;1.90;;
74042;SDS011;62384;53.600;10.040;2022-10-23T13:56:19;6.35;;;2.00;;
74042;SDS011;62384;53.600;10.040;2022-10-23T13:58:45;4.47;;;2.35;;
74042;SDS011;62384;53.600;10.040;2022-10-23T14:01:15;10.20;;;2.78;;
74042;SDS011;62384;53.600;10.040;2022-10-23T14:03:46;3.88;;;1.60;;
74042;SDS011;62384;53.600;10.040;2022-10-23T14:06:12;2.22;;;1.70;;
74042;SDS011;62384;53.600;10.040;2022-10-23T14:08:43;3.72;;;1.73;;
74042;SDS011;62384;53.600;10.040;2022-10-23T14:11:09;5.13;;;2.10;;
74042;SDS011;62384;53.600;10.040;2022-10-23T14:13:35;4.00;;;2.08;;
74042;SDS011;62384;53.600;10.040;2022-10-23T14:16:00;6.68;;;2.55;;
74042;SDS011;62384;53.600;10.040;2022-10-23T14:18:26;5.45;;;2.38;;
74042;SDS011;62384;53.600;10.040;2022-10-23T14:20:51;7.43;;;2.13;;
74042;SDS011;62384;53.600;10.040;2022-10-23T14:23:16;5.55;;;1.92;;
74042;SDS011;62384;53.600;10.040;2022-10-23T14:25:42;4.82;;;1.95;;
74042;SDS011;62384;53.600;10.040;2022-10-23T14:28:10;4.72;;;2.00;;
74042;SDS011;62384;53.600;10.040;2022-10-23T14:30:37;4.80;;;1.80;;
74042;SDS011;62384;53.600;10.040;2022-10-23T14:33:03;6.45;;;1.90;;
74042;SDS011;62384;53.600;10.040;2022-10-23T14:35:29;3.13;;;1.73;;
74042;SDS011;62384;53.600;10.040;2022-10-23T14:37:54;2.40;;;1.80;;
74042;SDS011;62384;53.600;10.040;2022-10-23T14:40:19;4.75;;;2.00;;
74042;SDS011;62384;53.600;10.040;2022-10-23T14:42:45;2.85;;;2.13;;
74042;SDS011;62384;53.600;10.040;2022-10-23T14:45:10;5.40;;;1.98;;
74042;SDS011;62384;53.600;10.040;2022-10-23T14:47:45;3.55;;;1.98;;
74042;SDS011;62384;53.600;10.040;2022-10-23T14:50:10;6.28;;;2.85;;
74042;SDS011;62384;53.600;10.040;2022-10-23T14:52:42;7.10;;;2.03;;
74042;SDS011;62384;53.600;10.040;2022-10-23T14:55:08;6.88;;;2.08;;
74042;SDS011;62384;53.600;10.040;2022-10-23T14:57:33;5.15;;;2.10;;
74042;SDS011;62384;53.600;10.040;2022-10-23T14:59:58;5.57;;;2.22;;
74042;SDS011;62384;53.600;10.040;2022-10-23T15:02:24;4.93;;;2.40;;
74042;SDS011;62384;53.600;10.040;2022-10-23T15:04:53;7.07;;;2.38;;
74042;SDS011;62384;53.600;10.040;2022-10-23T15:07:18;3.65;;;2.75;;
74042;SDS011;62384;53.600;10.040;2022-10-23T15:09:44;2.42;;;1.95;;
74042;SDS011;62384;53.600;10.040;2022-10-23T15:12:12;7.30;;;2.38;;
74042;SDS011;62384;53.600;10.040;2022-10-23T15:14:37;6.13;;;2.45;;
74042;SDS011;62384;53.600;10.040;2022-10-23T15:17:03;4.47;;;2.22;;
74042;SDS011;62384;53.600;10.040;2022-10-23T15:19:33;6.20;;;2.90;;
74042;SDS011;62384;53.600;10.040;2022-10-23T15:21:59;4.40;;;2.30;;
74042;SDS011;62384;53.600;10.040;2022-10-23T15:24:24;10.80;;;4.13;;
74042;SDS011;62384;53.600;10.040;2022-10-23T15:26:53;5.10;;;2.47;;
74042;SDS011;62384;53.600;10.040;2022-10-23T15:29:27;7.35;;;1.83;;
74042;SDS011;62384;53.600;10.040;2022-10-23T15:31:54;4.75;;;2.00;;
74042;SDS011;62384;53.600;10.040;2022-10-23T15:34:22;9.02;;;2.00;;
74042;SDS011;62384;53.600;10.040;2022-10-23T15:36:50;5.30;;;2.83;;
74042;SDS011;62384;53.600;10.040;2022-10-23T15:39:17;5.22;;;2.47;;
74042;SDS011;62384;53.600;10.040;2022-10-23T15:41:52;4.40;;;2.70;;
74042;SDS011;62384;53.600;10.040;2022-10-23T15:44:19;3.72;;;2.65;;
74042;SDS011;62384;53.600;10.040;2022-10-23T15:46:46;4.00;;;2.30;;
74042;SDS011;62384;53.600;10.040;2022-10-23T15:49:12;11.30;;;2.83;;
74042;SDS011;62384;53.600;10.040;2022-10-23T15:54:29;5.32;;;2.00;;
74042;SDS011;62384;53.600;10.040;2022-10-23T15:56:54;2.78;;;1.92;;
74042;SDS011;62384;53.600;10.040;2022-10-23T15:59:20;6.75;;;2.45;;
74042;SDS011;62384;53.600;10.040;2022-10-23T16:01:49;8.02;;;3.00;;
74042;SDS011;62384;53.600;10.040;2022-10-23T16:04:15;7.22;;;2.40;;
74042;SDS011;62384;53.600;10.040;2022-10-23T16:06:41;4.88;;;2.80;;
74042;SDS011;62384;53.600;10.040;2022-10-23T16:09:07;6.25;;;2.92;;
74042;SDS011;62384;53.600;10.040;2022-10-23T16:11:33;7.22;;;3.03;;
74042;SDS011;62384;53.600;10.040;2022-10-23T16:14:00;10.05;;;2.55;;
74042;SDS011;62384;53.600;10.040;2022-10-23T16:16:27;8.57;;;2.90;;
74042;SDS011;62384;53.600;10.040;2022-10-23T16:18:53;10.75;;;3.13;;
74042;SDS011;62384;53.600;10.040;2022-10-23T16:21:19;6.30;;;2.75;;
74042;SDS011;62384;53.600;10.040;2022-10-23T16:23:50;5.53;;;2.88;;
74042;SDS011;62384;53.600;10.040;2022-10-23T16:26:18;16.15;;;3.17;;
74042;SDS011;62384;53.600;10.040;2022-10-23T16:28:45;5.32;;;3.30;;
74042;SDS011;62384;53.600;10.040;2022-10-23T16:31:19;9.15;;;3.28;;
74042;SDS011;62384;53.600;10.040;2022-10-23T16:33:45;6.05;;;2.85;;
74042;SDS011;62384;53.600;10.040;2022-10-23T16:36:11;10.10;;;3.38;;
74042;SDS011;62384;53.600;10.040;2022-10-23T16:38:40;9.82;;;3.17;;
74042;SDS011;62384;53.600;10.040;2022-10-23T16:41:05;11.32;;;3.20;;
74042;SDS011;62384;53.600;10.040;2022-10-23T16:43:38;6.28;;;3.03;;
74042;SDS011;62384;53.600;10.040;2022-10-23T16:46:08;6.13;;;2.75;;
74042;SDS011;62384;53.600;10.040;2022-10-23T16:48:36;7.18;;;2.72;;
74042;SDS011;62384;53.600;10.040;2022-10-23T16:51:10;9.77;;;2.88;;
74042;SDS011;62384;53.600;10.040;2022-10-23T16:53:40;7.43;;;3.42;;